Time;durP1;ratioP1;P1;durP2;ratioP2;P2;SDS_P1;SDS_P2;PMS_P1;PMS_P2;Temp;Humidity;BMP_temperature;BMP_pressure;BME280_temperature;BME280_humidity;BME280_pressure;Samples;Min_cycle;Max_cycle;Signal;HPM_P1;HPM_P2
2023/09/18 00:01:40;;;;;;;59.78;35.15;;;16.60;99.90;;;;;;5007648;28;20030;-92
2023/09/18 00:04:06;;;;;;;66.13;37.40;;;16.60;99.90;;;;;;5004495;28;20464;-90
2023/09/18 00:06:32;;;;;;;57.88;33.03;;;16.70;99.90;;;;;;5011488;28;20041;-92
2023/09/18 00:08:58;;;;;;;57.33;37.28;;;16.70;99.90;;;;;;4987878;28;20073;-91
2023/09/18 00:11:24;;;;;;;64.82;37.03;;;16.70;99.90;;;;;;4987354;28;20018;-91
2023/09/18 00:13:50;;;;;;;68.07;37.00;;;16.70;99.90;;;;;;4987917;28;20412;-92
2023/09/18 00:16:15;;;;;;;64.88;38.45;;;16.70;99.90;;;;;;4988158;28;20030;-91
2023/09/18 00:18:42;;;;;;;68.80;38.65;;;16.70;99.90;;;;;;5005086;28;20022;-91
2023/09/18 00:21:10;;;;;;;64.20;37.95;;;16.70;99.90;;;;;;4986539;28;20026;-91
2023/09/18 00:23:36;;;;;;;57.80;34.78;;;16.60;99.90;;;;;;4989138;28;20022;-91
2023/09/18 00:26:02;;;;;;;71.70;39.38;;;16.70;99.90;;;;;;4988768;28;20049;-90
2023/09/18 00:28:27;;;;;;;69.38;38.97;;;16.70;99.90;;;;;;4987110;28;20026;-91
2023/09/18 00:30:53;;;;;;;65.35;36.35;;;16.70;99.90;;;;;;4987632;28;20036;-91
2023/09/18 00:33:19;;;;;;;67.65;37.33;;;16.70;99.90;;;;;;4987778;28;20125;-89
2023/09/18 00:35:46;;;;;;;63.88;39.13;;;16.60;99.90;;;;;;4987375;28;20597;-90
2023/09/18 00:38:12;;;;;;;71.03;39.22;;;16.60;99.90;;;;;;5005148;28;20026;-91
2023/09/18 00:40:38;;;;;;;73.93;40.05;;;16.70;99.90;;;;;;4986589;28;20026;-92
2023/09/18 00:43:03;;;;;;;73.22;38.95;;;16.70;99.90;;;;;;4985617;28;20104;-89
2023/09/18 00:45:29;;;;;;;65.47;38.28;;;16.70;99.90;;;;;;4987559;28;20052;-91
2023/09/18 00:47:55;;;;;;;57.72;33.58;;;16.70;99.90;;;;;;4987589;28;20026;-91
2023/09/18 00:50:21;;;;;;;64.07;37.13;;;16.70;99.90;;;;;;4986797;28;20026;-91
2023/09/18 00:52:48;;;;;;;66.53;37.65;;;16.60;99.90;;;;;;5005550;28;20045;-91
2023/09/18 00:55:14;;;;;;;63.45;34.97;;;16.70;99.90;;;;;;4983539;28;20088;-91
2023/09/18 00:57:41;;;;;;;65.75;36.25;;;16.70;99.90;;;;;;4989137;28;20017;-91
2023/09/18 01:00:07;;;;;;;75.13;38.00;;;16.70;99.90;;;;;;4990560;28;20026;-90
2023/09/18 01:02:33;;;;;;;66.88;36.67;;;16.70;99.90;;;;;;5000205;28;20022;-90
2023/09/18 01:04:59;;;;;;;66.32;37.90;;;16.70;99.90;;;;;;4996981;28;20030;-91
2023/09/18 01:07:25;;;;;;;66.97;35.33;;;16.70;99.90;;;;;;4992486;28;20022;-91
2023/09/18 01:09:51;;;;;;;73.30;38.25;;;16.70;99.90;;;;;;4990736;28;20025;-92
2023/09/18 01:12:29;;;;;;;67.93;37.03;;;16.70;99.90;;;;;;4990404;28;20034;-92
2023/09/18 01:15:30;;;;;;;79.03;37.67;;;16.70;99.90;;;;;;4990946;28;20022;-92
2023/09/18 01:17:56;;;;;;;;;;;16.70;99.90;;;;;;4987608;28;20026;-92
2023/09/18 01:20:22;;;;;;;73.20;35.53;;;16.70;99.90;;;;;;4989073;28;19909;-93
2023/09/18 01:22:49;;;;;;;71.35;34.75;;;16.60;99.90;;;;;;4990256;28;20105;-92
2023/09/18 01:25:15;;;;;;;77.05;36.85;;;16.60;99.90;;;;;;4988174;28;20026;-91
2023/09/18 01:27:41;;;;;;;51.42;28.42;;;16.60;99.90;;;;;;4988383;28;20285;-93
2023/09/18 01:30:08;;;;;;;66.05;32.28;;;16.60;99.90;;;;;;4989651;28;20026;-93
2023/09/18 01:32:36;;;;;;;54.53;28.73;;;16.60;99.90;;;;;;4984480;28;20084;-91
2023/09/18 01:35:05;;;;;;;63.15;32.20;;;16.60;99.90;;;;;;4992599;28;20495;-92
2023/09/18 01:37:32;;;;;;;62.72;32.20;;;16.60;99.90;;;;;;4973658;28;20036;-92
2023/09/18 01:39:59;;;;;;;64.75;32.92;;;16.60;99.90;;;;;;4999153;28;20126;-92
2023/09/18 01:42:26;;;;;;;65.35;34.17;;;16.60;99.90;;;;;;5016156;28;20082;-92
2023/09/18 01:44:53;;;;;;;48.97;26.83;;;16.70;99.90;;;;;;5005192;28;20046;-92
2023/09/18 01:47:23;;;;;;;62.05;32.40;;;16.60;99.90;;;;;;5010410;28;20011;-90
2023/09/18 01:49:48;;;;;;;45.45;26.63;;;16.60;99.90;;;;;;5009276;28;20090;-91
2023/09/18 01:52:14;;;;;;;52.58;29.25;;;16.70;99.90;;;;;;5008897;28;20030;-93
2023/09/18 01:54:40;;;;;;;61.88;32.30;;;16.70;99.90;;;;;;5016775;28;20037;-91
2023/09/18 01:57:07;;;;;;;56.13;30.05;;;16.70;99.90;;;;;;4994343;28;20510;-92
2023/09/18 01:59:33;;;;;;;55.42;29.50;;;16.70;99.90;;;;;;5006412;28;20014;-92
2023/09/18 02:01:59;;;;;;;38.97;22.25;;;16.70;99.90;;;;;;4991002;28;20046;-92
2023/09/18 02:04:25;;;;;;;50.38;27.60;;;16.70;99.90;;;;;;4989692;28;20110;-92
2023/09/18 02:06:51;;;;;;;44.38;25.15;;;16.70;99.90;;;;;;4985564;28;20060;-92
2023/09/18 02:09:18;;;;;;;36.28;20.65;;;16.70;99.90;;;;;;5011722;28;20026;-92
2023/09/18 02:11:46;;;;;;;49.22;27.40;;;16.70;99.90;;;;;;4991221;28;20026;-92
2023/09/18 02:14:12;;;;;;;39.33;23.35;;;16.70;99.90;;;;;;5007554;28;20033;-91
2023/09/18 02:16:43;;;;;;;48.17;27.05;;;16.70;99.90;;;;;;4991874;28;20017;-92
2023/09/18 02:19:10;;;;;;;50.05;25.58;;;16.70;99.90;;;;;;5011469;28;20037;-92
2023/09/18 02:21:36;;;;;;;52.20;27.75;;;16.70;99.90;;;;;;4992706;28;20446;-90
2023/09/18 02:24:02;;;;;;;51.90;27.33;;;16.70;99.90;;;;;;4992959;28;20026;-92
2023/09/18 02:26:28;;;;;;;56.28;28.33;;;16.70;99.90;;;;;;4992236;28;20456;-91
2023/09/18 02:28:54;;;;;;;59.40;27.42;;;16.70;99.90;;;;;;4993728;28;20029;-91
2023/09/18 02:31:21;;;;;;;49.15;26.13;;;16.70;99.90;;;;;;5011192;28;20022;-91
2023/09/18 02:33:47;;;;;;;52.88;26.75;;;16.70;99.90;;;;;;5012998;28;20029;-92
2023/09/18 02:36:13;;;;;;;52.90;28.10;;;16.70;99.90;;;;;;4994103;28;20475;-92
2023/09/18 02:38:39;;;;;;;50.80;27.10;;;16.70;99.90;;;;;;4996837;28;20049;-90
2023/09/18 02:41:04;;;;;;;49.72;27.27;;;16.70;99.90;;;;;;4995337;28;20085;-91
2023/09/18 02:43:30;;;;;;;48.45;25.73;;;16.70;99.90;;;;;;5015312;28;20032;-91
2023/09/18 02:45:56;;;;;;;47.95;24.73;;;16.70;99.90;;;;;;5009611;28;20100;-91
2023/09/18 02:48:22;;;;;;;46.00;23.75;;;16.70;99.90;;;;;;4994105;28;20030;-92
2023/09/18 02:50:47;;;;;;;41.20;22.90;;;16.70;99.90;;;;;;5009049;28;20041;-92
2023/09/18 02:53:21;;;;;;;42.80;24.70;;;16.70;99.90;;;;;;4991122;28;20022;-92
2023/09/18 02:55:50;;;;;;;45.20;24.80;;;16.70;99.90;;;;;;4993616;28;20043;-93
2023/09/18 02:58:16;;;;;;;48.63;24.90;;;16.70;99.90;;;;;;4995564;28;20022;-91
2023/09/18 03:00:45;;;;;;;42.67;24.58;;;16.70;99.90;;;;;;4994761;28;20053;-92
2023/09/18 03:03:12;;;;;;;28.77;18.20;;;16.70;99.90;;;;;;5001264;28;20122;-93
2023/09/18 03:05:38;;;;;;;44.38;24.65;;;16.60;99.90;;;;;;4992260;28;20192;-92
2023/09/18 03:08:05;;;;;;;44.80;24.67;;;16.60;99.90;;;;;;4995383;28;20467;-92
2023/09/18 03:10:41;;;;;;;47.03;25.15;;;16.60;99.90;;;;;;4996214;28;20036;-91
2023/09/18 03:13:09;;;;;;;47.63;23.52;;;16.70;99.90;;;;;;5000447;28;20034;-93
2023/09/18 03:15:35;;;;;;;32.75;20.65;;;16.60;99.90;;;;;;4990528;28;20383;-91
2023/09/18 03:18:02;;;;;;;42.28;21.80;;;16.60;99.90;;;;;;5007440;28;20620;-91
2023/09/18 03:20:28;;;;;;;39.33;21.70;;;16.60;99.90;;;;;;5006537;28;20149;-92
2023/09/18 03:22:56;;;;;;;44.55;21.20;;;16.60;99.90;;;;;;4991369;28;20029;-92
2023/09/18 03:25:22;;;;;;;36.72;19.25;;;16.60;99.90;;;;;;4988324;28;20030;-92
2023/09/18 03:27:48;;;;;;;33.42;21.45;;;16.60;99.90;;;;;;5002222;28;20034;-91
2023/09/18 03:30:15;;;;;;;34.38;19.98;;;16.60;99.90;;;;;;4989856;28;20549;-92
2023/09/18 03:32:42;;;;;;;28.42;15.57;;;16.60;99.90;;;;;;4989793;28;20471;-91
2023/09/18 03:35:15;;;;;;;38.38;21.00;;;16.60;99.90;;;;;;4987203;28;20039;-91
2023/09/18 03:37:41;;;;;;;28.30;17.35;;;16.60;99.90;;;;;;4987091;28;20034;-91
2023/09/18 03:40:08;;;;;;;34.85;20.17;;;16.60;99.90;;;;;;4986921;28;20126;-91
2023/09/18 03:42:34;;;;;;;35.58;19.90;;;16.60;99.90;;;;;;4989400;28;20109;-92
2023/09/18 03:45:00;;;;;;;35.53;20.27;;;16.60;99.90;;;;;;4989188;28;20491;-91
2023/09/18 03:47:25;;;;;;;25.25;16.13;;;16.50;99.90;;;;;;5004410;28;20064;-91
2023/09/18 03:49:51;;;;;;;32.72;18.83;;;16.50;99.90;;;;;;4987018;28;20057;-90
2023/09/18 03:52:17;;;;;;;33.55;20.42;;;16.50;99.90;;;;;;4988287;28;20360;-91
2023/09/18 03:54:42;;;;;;;38.08;20.00;;;16.50;99.90;;;;;;4988933;28;20424;-91
2023/09/18 03:57:08;;;;;;;24.55;14.93;;;16.50;99.90;;;;;;4992426;28;20029;-92
2023/09/18 03:59:34;;;;;;;25.15;16.15;;;16.50;99.90;;;;;;4992890;28;20372;-91
2023/09/18 04:01:59;;;;;;;33.28;18.48;;;16.50;99.90;;;;;;5004025;28;20054;-92
2023/09/18 04:04:25;;;;;;;29.35;15.32;;;16.50;99.90;;;;;;5010062;28;20034;-91
2023/09/18 04:06:51;;;;;;;33.83;19.27;;;16.50;99.90;;;;;;5016218;28;20026;-91
2023/09/18 04:09:17;;;;;;;33.55;18.42;;;16.50;99.90;;;;;;5015868;28;20100;-91
2023/09/18 04:11:43;;;;;;;31.52;17.83;;;16.40;99.90;;;;;;5015694;28;20015;-91
2023/09/18 04:14:09;;;;;;;34.53;17.88;;;16.40;99.90;;;;;;4994026;28;20018;-92
2023/09/18 04:16:41;;;;;;;27.67;16.25;;;16.40;99.90;;;;;;4990338;28;20022;-92
2023/09/18 04:19:08;;;;;;;27.50;17.33;;;16.40;99.90;;;;;;4990562;28;20026;-92
2023/09/18 04:21:33;;;;;;;28.58;17.52;;;16.40;99.90;;;;;;5006132;28;20026;-92
2023/09/18 04:23:59;;;;;;;25.45;15.90;;;16.30;99.90;;;;;;5010092;28;20026;-91
2023/09/18 04:26:29;;;;;;;27.48;15.75;;;16.30;99.90;;;;;;4970671;28;20035;-92
2023/09/18 04:28:55;;;;;;;27.50;16.35;;;16.30;99.90;;;;;;4991174;28;20109;-91
2023/09/18 04:31:21;;;;;;;36.95;18.40;;;16.30;99.90;;;;;;5006636;28;20041;-92
2023/09/18 04:33:47;;;;;;;28.58;16.65;;;16.30;99.90;;;;;;5006664;28;20026;-92
2023/09/18 04:36:12;;;;;;;33.38;18.73;;;16.30;99.90;;;;;;5007808;28;20032;-91
2023/09/18 04:38:38;;;;;;;28.98;15.95;;;16.20;99.90;;;;;;5004012;28;20405;-91
2023/09/18 04:41:03;;;;;;;26.70;16.25;;;16.20;99.90;;;;;;4989906;28;20041;-92
2023/09/18 04:43:30;;;;;;;25.05;16.25;;;16.20;99.90;;;;;;4990189;28;20434;-92
2023/09/18 04:45:56;;;;;;;29.42;16.45;;;16.20;99.90;;;;;;4985886;28;20046;-92
2023/09/18 04:48:21;;;;;;;28.88;16.13;;;16.20;99.90;;;;;;5004515;28;20026;-92
2023/09/18 04:50:48;;;;;;;26.65;16.33;;;16.20;99.90;;;;;;5009851;28;20443;-92
2023/09/18 04:53:14;;;;;;;29.50;17.25;;;16.20;99.90;;;;;;4987960;28;20104;-91
2023/09/18 04:55:41;;;;;;;30.85;17.45;;;16.10;99.90;;;;;;4985067;28;20129;-92
2023/09/18 04:58:07;;;;;;;28.10;17.23;;;16.10;99.90;;;;;;4987383;28;20029;-91
2023/09/18 05:00:33;;;;;;;23.83;13.70;;;16.10;99.90;;;;;;4987738;28;20026;-91
2023/09/18 05:03:01;;;;;;;31.63;16.65;;;16.10;99.90;;;;;;4991003;28;20120;-91
2023/09/18 05:05:28;;;;;;;27.48;14.68;;;16.10;99.90;;;;;;4987132;28;20439;-91
2023/09/18 05:07:53;;;;;;;21.63;13.38;;;16.10;99.90;;;;;;5002388;28;20014;-90
2023/09/18 05:10:19;;;;;;;18.02;10.55;;;16.10;99.90;;;;;;4986759;28;20048;-91
2023/09/18 05:12:49;;;;;;;15.60;7.82;;;16.00;99.90;;;;;;4986782;28;20019;-91
2023/09/18 05:15:16;;;;;;;13.82;8.43;;;16.00;99.90;;;;;;4991324;28;20026;-91
2023/09/18 05:17:47;;;;;;;14.40;8.10;;;16.00;99.90;;;;;;4990503;28;20361;-92
2023/09/18 05:20:16;;;;;;;14.07;8.30;;;16.00;99.90;;;;;;4996779;28;20019;-92
2023/09/18 05:22:43;;;;;;;12.25;7.90;;;16.00;99.90;;;;;;5005217;28;20041;-92
2023/09/18 05:25:12;;;;;;;10.45;7.68;;;16.00;99.90;;;;;;4995372;28;20699;-92
2023/09/18 05:27:44;;;;;;;12.50;7.03;;;16.00;99.90;;;;;;4992620;28;20029;-92
2023/09/18 05:30:15;;;;;;;11.75;6.82;;;16.00;99.90;;;;;;4988881;28;20109;-92
2023/09/18 05:32:41;;;;;;;;;;;16.00;99.90;;;;;;5006491;28;20025;-91
2023/09/18 05:35:10;;;;;;;14.80;6.50;;;15.90;99.90;;;;;;5005153;28;20278;-92
2023/09/18 05:37:37;;;;;;;12.50;7.50;;;15.90;99.90;;;;;;4987799;28;20022;-90
2023/09/18 05:40:05;;;;;;;10.32;6.57;;;15.90;99.90;;;;;;5003473;28;20108;-92
2023/09/18 05:42:31;;;;;;;12.23;6.43;;;15.90;99.90;;;;;;4992047;28;20022;-92
2023/09/18 05:44:56;;;;;;;8.35;5.85;;;15.90;99.90;;;;;;4992561;28;20057;-93
2023/09/18 05:47:23;;;;;;;11.77;6.53;;;15.90;99.90;;;;;;4987974;28;20042;-92
2023/09/18 05:49:49;;;;;;;12.23;6.30;;;15.90;99.90;;;;;;4996238;28;20479;-91
2023/09/18 05:52:14;;;;;;;10.02;5.60;;;15.80;99.90;;;;;;4996813;28;20026;-91
2023/09/18 05:54:40;;;;;;;9.27;5.65;;;15.80;99.90;;;;;;5014468;28;20022;-90
2023/09/18 05:57:06;;;;;;;7.10;4.90;;;15.80;99.90;;;;;;5015935;28;20104;-92
2023/09/18 05:59:32;;;;;;;6.97;5.10;;;15.80;99.90;;;;;;4982938;28;20021;-89
2023/09/18 06:01:58;;;;;;;8.23;5.25;;;15.70;99.90;;;;;;4995388;28;20546;-92
2023/09/18 06:04:24;;;;;;;11.85;5.47;;;15.70;99.90;;;;;;4988565;28;20611;-90
2023/09/18 06:06:51;;;;;;;7.95;5.35;;;15.70;99.90;;;;;;4990309;28;20037;-91
2023/09/18 06:09:16;;;;;;;7.25;4.65;;;15.70;99.90;;;;;;4988871;28;20029;-92
2023/09/18 06:11:42;;;;;;;9.13;4.80;;;15.60;99.90;;;;;;5006874;28;20467;-91
2023/09/18 06:14:08;;;;;;;8.18;5.07;;;15.70;99.90;;;;;;5005496;28;20026;-92
2023/09/18 06:16:34;;;;;;;6.18;4.53;;;15.70;99.90;;;;;;4984868;28;20026;-93
2023/09/18 06:19:00;;;;;;;10.30;4.47;;;15.60;99.90;;;;;;5011177;28;20048;-91
2023/09/18 06:21:25;;;;;;;7.35;3.67;;;15.60;99.90;;;;;;4995446;28;20105;-91
2023/09/18 06:23:51;;;;;;;8.48;3.75;;;15.60;99.90;;;;;;4992678;28;20025;-91
2023/09/18 06:26:18;;;;;;;9.93;3.97;;;15.60;99.90;;;;;;4995020;28;20038;-91
2023/09/18 06:28:44;;;;;;;6.85;3.80;;;15.50;99.90;;;;;;4992328;28;20022;-93
2023/09/18 06:31:11;;;;;;;8.48;3.50;;;15.50;99.90;;;;;;4995170;28;20479;-92
2023/09/18 06:33:37;;;;;;;9.80;4.10;;;15.50;99.90;;;;;;4992814;28;20025;-91
2023/09/18 06:36:03;;;;;;;8.38;3.53;;;15.50;99.90;;;;;;5007430;28;20105;-90
2023/09/18 06:38:28;;;;;;;7.65;4.07;;;15.50;99.90;;;;;;5008112;28;20026;-90
2023/09/18 06:40:55;;;;;;;5.63;2.47;;;15.50;99.90;;;;;;5009882;28;20026;-92
2023/09/18 06:43:20;;;;;;;5.47;2.90;;;15.40;99.90;;;;;;5009505;28;20475;-92
2023/09/18 06:45:46;;;;;;;4.30;2.92;;;15.40;99.90;;;;;;5003279;28;20045;-92
2023/09/18 06:48:13;;;;;;;9.98;2.35;;;15.40;99.90;;;;;;4995969;28;20091;-91
2023/09/18 06:50:39;;;;;;;4.78;2.65;;;15.40;99.90;;;;;;5006914;28;20014;-92
2023/09/18 06:53:05;;;;;;;4.35;2.42;;;15.40;99.90;;;;;;5006237;28;20164;-92
2023/09/18 06:55:30;;;;;;;3.67;2.08;;;15.40;99.90;;;;;;5005019;28;20022;-92
2023/09/18 06:57:56;;;;;;;4.68;2.33;;;15.40;99.90;;;;;;4989100;28;20049;-93
2023/09/18 07:00:22;;;;;;;4.35;2.10;;;15.40;99.90;;;;;;5009034;28;20475;-92
2023/09/18 07:02:49;;;;;;;3.00;2.00;;;15.40;99.90;;;;;;4990024;28;20044;-92
2023/09/18 07:05:15;;;;;;;5.47;2.35;;;15.40;99.90;;;;;;4990355;28;20038;-92
2023/09/18 07:07:40;;;;;;;6.22;2.33;;;15.40;99.90;;;;;;4990775;28;20018;-93
2023/09/18 07:10:06;;;;;;;12.15;3.53;;;15.40;99.90;;;;;;4990260;28;20033;-90
2023/09/18 07:12:32;;;;;;;7.38;2.80;;;15.40;99.90;;;;;;5014204;28;20089;-91
2023/09/18 07:15:06;;;;;;;7.32;2.40;;;15.40;99.90;;;;;;5019275;28;20065;-91
2023/09/18 07:17:35;;;;;;;4.60;2.72;;;15.40;99.90;;;;;;5001038;28;20022;-92
2023/09/18 07:20:03;;;;;;;8.07;2.67;;;15.40;99.90;;;;;;5013190;28;20022;-90
2023/09/18 07:22:28;;;;;;;5.22;3.05;;;15.40;99.90;;;;;;4994265;28;20034;-91
2023/09/18 07:24:54;;;;;;;4.72;2.80;;;15.40;99.90;;;;;;4988481;28;20041;-91
2023/09/18 07:27:20;;;;;;;4.40;2.63;;;15.30;99.90;;;;;;4988578;28;20046;-92
2023/09/18 07:29:45;;;;;;;5.75;3.63;;;15.40;99.90;;;;;;4999250;28;20049;-92
2023/09/18 07:32:11;;;;;;;5.32;2.58;;;15.30;99.90;;;;;;4982158;28;20057;-91
2023/09/18 07:34:37;;;;;;;6.00;3.20;;;15.30;99.90;;;;;;4996467;28;20077;-92
2023/09/18 07:37:03;;;;;;;7.90;3.60;;;15.30;99.90;;;;;;4999624;28;20026;-91
2023/09/18 07:39:28;;;;;;;5.82;3.13;;;15.30;99.90;;;;;;5017880;28;20026;-89
2023/09/18 07:41:55;;;;;;;8.02;3.22;;;15.20;99.90;;;;;;5035228;28;20061;-92
2023/09/18 07:44:21;;;;;;;5.75;2.90;;;15.20;99.90;;;;;;4997889;28;20026;-91
2023/09/18 07:46:47;;;;;;;6.18;3.10;;;15.20;99.90;;;;;;4997525;28;20546;-94
2023/09/18 07:49:14;;;;;;;9.75;3.45;;;15.20;99.90;;;;;;4997949;28;20053;-94
2023/09/18 07:51:39;;;;;;;6.65;3.13;;;15.20;99.90;;;;;;4998389;28;20034;-94
2023/09/18 07:54:07;;;;;;;8.77;2.95;;;15.20;99.90;;;;;;5001315;28;20085;-92
2023/09/18 07:56:34;;;;;;;6.88;2.83;;;15.30;99.90;;;;;;5018132;28;20042;-96
2023/09/18 07:59:00;;;;;;;8.50;3.13;;;15.30;99.90;;;;;;5018321;28;20040;-95
2023/09/18 08:01:25;;;;;;;7.90;3.17;;;15.40;99.90;;;;;;4999597;28;20030;-93
2023/09/18 08:03:51;;;;;;;7.38;2.80;;;15.50;99.90;;;;;;4997977;28;20026;-92
2023/09/18 08:06:19;;;;;;;6.30;2.50;;;15.50;99.90;;;;;;5016440;28;20070;-93
2023/09/18 08:08:45;;;;;;;4.43;2.67;;;15.60;99.90;;;;;;4998975;28;20028;-94
2023/09/18 08:11:10;;;;;;;11.23;3.33;;;15.60;99.90;;;;;;4997466;28;20502;-92
2023/09/18 08:13:37;;;;;;;6.95;2.80;;;15.70;99.90;;;;;;4996008;28;20022;-93
2023/09/18 08:16:07;;;;;;;9.20;3.25;;;15.70;99.90;;;;;;4999766;28;20559;-94
2023/09/18 08:18:32;;;;;;;11.27;4.03;;;15.80;99.90;;;;;;4998490;28;20343;-93
2023/09/18 08:20:58;;;;;;;7.85;3.20;;;15.90;99.90;;;;;;5001446;28;20033;-95
2023/09/18 08:23:27;;;;;;;6.20;3.38;;;16.00;99.90;;;;;;4998603;28;20018;-92
2023/09/18 08:25:57;;;;;;;6.15;2.92;;;16.00;99.90;;;;;;5000965;28;20041;-93
2023/09/18 08:28:23;;;;;;;6.88;3.35;;;16.10;99.90;;;;;;5011784;28;20085;-94
2023/09/18 08:30:48;;;;;;;4.05;2.70;;;16.20;99.90;;;;;;5018665;28;20119;-93
2023/09/18 08:33:14;;;;;;;6.30;2.50;;;16.10;99.90;;;;;;5016738;28;20029;-93
2023/09/18 08:35:40;;;;;;;7.57;2.67;;;16.20;99.90;;;;;;5017081;28;20029;-94
2023/09/18 08:38:06;;;;;;;3.65;1.85;;;16.20;99.90;;;;;;5003730;28;20026;-90
2023/09/18 08:40:34;;;;;;;6.50;2.28;;;16.20;99.90;;;;;;4997514;28;20026;-93
2023/09/18 08:43:03;;;;;;;5.32;2.88;;;16.20;99.90;;;;;;4997435;28;20471;-93
2023/09/18 08:45:43;;;;;;;4.88;2.60;;;16.20;99.90;;;;;;4996582;28;20050;-94
2023/09/18 08:48:09;;;;;;;4.50;2.13;;;16.20;99.90;;;;;;5019190;28;20029;-93
2023/09/18 08:50:36;;;;;;;4.20;1.75;;;16.30;99.90;;;;;;5019021;28;20499;-91
2023/09/18 08:53:03;;;;;;;3.25;1.80;;;16.30;99.90;;;;;;4998958;28;20057;-93
2023/09/18 08:55:29;;;;;;;6.20;2.42;;;16.40;99.90;;;;;;4999128;28;20395;-94
2023/09/18 08:57:58;;;;;;;5.28;1.98;;;16.40;99.90;;;;;;5013945;28;20026;-94
2023/09/18 09:00:23;;;;;;;9.48;2.35;;;16.50;99.90;;;;;;4986443;28;20157;-94
2023/09/18 09:02:51;;;;;;;5.47;1.90;;;16.50;99.90;;;;;;4985432;28;20117;-94
2023/09/18 09:05:17;;;;;;;8.00;2.03;;;16.60;99.90;;;;;;4997279;28;20068;-94
2023/09/18 09:07:42;;;;;;;4.43;2.10;;;16.70;99.90;;;;;;5015848;28;20037;-94
2023/09/18 09:10:08;;;;;;;7.85;2.10;;;16.80;99.90;;;;;;5015672;28;20037;-94
2023/09/18 09:12:58;;;;;;;3.08;1.60;;;16.80;99.90;;;;;;5009372;28;20022;-93
2023/09/18 09:15:34;;;;;;;3.78;1.98;;;16.90;99.90;;;;;;4988910;28;20169;-92
2023/09/18 09:18:08;;;;;;;5.03;1.60;;;17.00;99.90;;;;;;4993275;28;20026;-94
2023/09/18 09:20:35;;;;;;;6.88;1.90;;;17.20;99.90;;;;;;4990801;28;20399;-92
2023/09/18 09:23:08;;;;;;;6.30;1.77;;;17.30;99.90;;;;;;4998478;28;20049;-93
2023/09/18 09:25:35;;;;;;;4.97;1.77;;;17.50;99.90;;;;;;5006005;28;20069;-92
2023/09/18 09:28:04;;;;;;;5.22;2.13;;;17.60;99.90;;;;;;5007278;28;20027;-93
2023/09/18 09:30:31;;;;;;;6.05;1.60;;;17.70;99.90;;;;;;4988864;28;20057;-93
2023/09/18 09:32:58;;;;;;;10.00;1.90;;;17.90;99.90;;;;;;4988827;28;20018;-94
2023/09/18 09:35:30;;;;;;;6.40;2.03;;;18.00;99.90;;;;;;4989083;28;20037;-92
2023/09/18 09:38:33;;;;;;;6.18;2.15;;;18.20;99.90;;;;;;4986253;28;20089;-93
2023/09/18 09:41:00;;;;;;;6.70;2.00;;;18.30;99.90;;;;;;4991483;28;20030;-95
2023/09/18 09:43:26;;;;;;;7.15;1.80;;;18.60;99.90;;;;;;5014007;28;20124;-92
2023/09/18 09:46:00;;;;;;;3.17;1.42;;;18.70;99.90;;;;;;5016618;28;20376;-94
2023/09/18 09:48:26;;;;;;;4.22;1.58;;;18.90;99.90;;;;;;4998285;28;20490;-94
2023/09/18 09:50:55;;;;;;;3.08;1.52;;;19.00;99.90;;;;;;4998579;28;20033;-93
2023/09/18 09:53:52;;;;;;;6.80;1.58;;;18.90;99.90;;;;;;4997773;28;20312;-95
2023/09/18 09:56:19;;;;;;;5.18;1.67;;;18.80;99.90;;;;;;4991634;28;20399;-91
2023/09/18 09:58:59;;;;;;;7.22;1.83;;;18.80;99.90;;;;;;4981312;28;20049;-93
2023/09/18 10:01:27;;;;;;;3.97;1.50;;;18.60;99.90;;;;;;4979153;28;20112;-93
2023/09/18 10:03:55;;;;;;;3.60;1.65;;;18.50;99.90;;;;;;5019861;28;20026;-93
2023/09/18 10:06:21;;;;;;;5.40;1.63;;;18.40;99.90;;;;;;5016670;28;20585;-94
2023/09/18 10:08:47;;;;;;;2.25;1.52;;;18.20;99.90;;;;;;5034080;28;21136;-94
2023/09/18 10:11:17;;;;;;;5.88;2.00;;;18.00;99.90;;;;;;5006701;28;20034;-95
2023/09/18 10:14:11;;;;;;;3.43;1.73;;;17.80;99.90;;;;;;4989455;28;20018;-90
2023/09/18 10:16:57;;;;;;;3.55;1.63;;;17.60;99.90;;;;;;5004502;28;20038;-92
2023/09/18 10:19:37;;;;;;;5.75;1.83;;;17.40;99.90;;;;;;5004462;28;20033;-94
2023/09/18 10:22:05;;;;;;;6.78;1.80;;;17.30;99.90;;;;;;4992714;28;20046;-95
2023/09/18 10:24:39;;;;;;;4.93;1.50;;;17.20;99.90;;;;;;5001368;28;20022;-95
2023/09/18 10:27:06;;;;;;;6.18;1.52;;;17.10;99.90;;;;;;5013998;28;20041;-92
2023/09/18 10:29:36;;;;;;;2.63;1.40;;;17.10;99.90;;;;;;5013836;28;20017;-92
2023/09/18 10:32:09;;;;;;;6.85;1.48;;;17.00;99.90;;;;;;4998249;28;20045;-92
2023/09/18 10:34:36;;;;;;;4.15;1.58;;;16.90;99.90;;;;;;5012000;28;20030;-94
2023/09/18 10:37:06;;;;;;;3.78;1.70;;;16.70;99.90;;;;;;5000193;28;20116;-94
2023/09/18 10:39:35;;;;;;;7.97;1.83;;;16.60;99.90;;;;;;4992434;28;20023;-95
2023/09/18 10:42:02;;;;;;;4.05;1.55;;;16.50;99.90;;;;;;5012645;28;20116;-94
2023/09/18 10:44:29;;;;;;;4.72;1.48;;;16.40;99.90;;;;;;5018200;28;20018;-94
2023/09/18 10:46:55;;;;;;;6.30;1.10;;;16.40;99.90;;;;;;4996799;28;20631;-95
2023/09/18 10:49:22;;;;;;;2.05;1.02;;;16.30;99.90;;;;;;4997769;28;20032;-93
2023/09/18 10:51:48;;;;;;;3.70;1.27;;;16.30;99.90;;;;;;5008009;28;20033;-94
2023/09/18 10:54:21;;;;;;;2.78;0.77;;;16.20;99.90;;;;;;4988878;28;20056;-92
2023/09/18 10:56:47;;;;;;;2.63;0.90;;;16.10;99.90;;;;;;4992674;28;20030;-93
2023/09/18 10:59:15;;;;;;;2.90;0.80;;;16.00;99.90;;;;;;4990359;28;20014;-93
2023/09/18 11:01:42;;;;;;;2.72;0.63;;;15.90;99.90;;;;;;5007416;28;20022;-93
2023/09/18 11:04:09;;;;;;;1.35;0.73;;;15.70;99.90;;;;;;4995865;28;20024;-94
2023/09/18 11:06:53;;;;;;;1.48;0.70;;;15.50;99.90;;;;;;5009139;28;20034;-95
2023/09/18 11:09:28;;;;;;;1.15;0.60;;;15.30;99.90;;;;;;5017056;28;20049;-95
2023/09/18 11:12:03;;;;;;;2.67;0.80;;;15.10;99.90;;;;;;5009070;28;20018;-92
2023/09/18 11:14:49;;;;;;;3.97;1.15;;;15.00;99.90;;;;;;4998957;28;20083;-93
2023/09/18 11:17:35;;;;;;;4.90;1.00;;;14.70;99.90;;;;;;4997433;28;20029;-92
2023/09/18 11:20:17;;;;;;;4.78;1.20;;;14.50;99.90;;;;;;4999634;28;20034;-92
2023/09/18 11:23:00;;;;;;;2.70;1.38;;;14.30;99.90;;;;;;5008608;28;20030;-93
2023/09/18 11:25:41;;;;;;;5.03;0.93;;;14.10;99.90;;;;;;5004169;28;20122;-92
2023/09/18 11:28:14;;;;;;;3.75;1.17;;;13.90;99.90;;;;;;4997938;28;20083;-94
2023/09/18 11:31:00;;;;;;;6.80;1.48;;;13.80;99.90;;;;;;4991490;28;20026;-94
2023/09/18 11:33:33;;;;;;;5.78;1.40;;;13.70;99.90;;;;;;4989299;28;20025;-93
2023/09/18 11:36:06;;;;;;;6.22;1.63;;;13.60;99.90;;;;;;4990322;28;20034;-93
2023/09/18 11:38:50;;;;;;;8.73;1.63;;;13.60;99.90;;;;;;5008155;28;20048;-92
2023/09/18 11:41:27;;;;;;;4.47;1.20;;;13.60;99.90;;;;;;5006035;28;20026;-94
2023/09/18 11:44:19;;;;;;;3.78;1.42;;;13.60;99.90;;;;;;5005195;28;20045;-94
2023/09/18 11:46:51;;;;;;;3.83;1.13;;;13.60;99.90;;;;;;5004605;28;20049;-93
2023/09/18 11:49:27;;;;;;;4.00;1.10;;;13.60;99.90;;;;;;4989594;28;20094;-94
2023/09/18 11:51:54;;;;;;;6.88;1.38;;;13.70;99.90;;;;;;5002651;28;20073;-93
2023/09/18 11:54:21;;;;;;;6.40;1.42;;;13.80;99.90;;;;;;4991611;28;20053;-93
2023/09/18 11:56:50;;;;;;;3.63;1.15;;;13.80;99.90;;;;;;5006301;28;20081;-92
2023/09/18 11:59:17;;;;;;;5.13;1.20;;;13.80;99.90;;;;;;5021313;28;20109;-92
2023/09/18 12:01:46;;;;;;;6.45;1.73;;;13.80;99.90;;;;;;5003439;28;20049;-94
2023/09/18 12:04:12;;;;;;;7.30;1.55;;;13.70;99.90;;;;;;5032327;28;20053;-90
2023/09/18 12:06:41;;;;;;;5.20;1.38;;;13.70;99.90;;;;;;5008525;28;20037;-93
2023/09/18 12:09:08;;;;;;;6.50;1.58;;;13.60;99.90;;;;;;5014591;28;20022;-94
2023/09/18 12:11:35;;;;;;;6.20;1.60;;;13.70;99.90;;;;;;5001720;28;20042;-94
2023/09/18 12:14:05;;;;;;;6.75;1.45;;;13.60;99.90;;;;;;5012213;28;20075;-94
2023/09/18 12:16:30;;;;;;;4.78;1.38;;;13.60;99.90;;;;;;4992394;28;20025;-93
2023/09/18 12:18:56;;;;;;;5.40;1.70;;;13.60;99.90;;;;;;5020685;28;20038;-93
2023/09/18 12:21:23;;;;;;;7.82;1.60;;;13.70;99.90;;;;;;5001105;28;20018;-93
2023/09/18 12:23:50;;;;;;;8.70;1.90;;;13.70;99.90;;;;;;5010938;28;20033;-93
2023/09/18 12:26:19;;;;;;;9.75;2.20;;;13.80;99.90;;;;;;4993778;28;20048;-93
2023/09/18 12:28:49;;;;;;;9.25;1.75;;;14.00;99.90;;;;;;4991882;28;21542;-94
2023/09/18 12:31:15;;;;;;;8.45;1.70;;;14.20;99.90;;;;;;5002516;28;20033;-93
2023/09/18 12:33:47;;;;;;;6.85;1.80;;;14.50;99.90;;;;;;4983121;28;20022;-92
2023/09/18 12:36:19;;;;;;;5.32;1.45;;;14.80;99.90;;;;;;4993657;28;20022;-92
2023/09/18 12:38:54;;;;;;;5.90;1.60;;;15.10;99.90;;;;;;4984514;28;20038;-91
2023/09/18 12:41:20;;;;;;;6.72;2.35;;;15.40;99.90;;;;;;4999729;28;20073;-94
2023/09/18 12:43:46;;;;;;;5.72;1.40;;;15.60;99.90;;;;;;4987517;28;20026;-92